createdAt,value
2023-02-03T00:01:33.225Z,1.72
2023-02-03T00:04:45.882Z,1.64
2023-02-03T00:07:58.213Z,1.57
2023-02-03T00:11:10.824Z,1.59
2023-02-03T00:14:23.140Z,1.63
2023-02-03T00:17:35.783Z,1.57
2023-02-03T00:20:48.176Z,1.63
2023-02-03T00:24:00.866Z,1.65
2023-02-03T00:27:14.306Z,1.67
2023-02-03T00:30:27.260Z,1.64
2023-02-03T00:33:39.815Z,1.59
2023-02-03T00:36:52.461Z,1.50
2023-02-03T00:40:05.186Z,1.46
2023-02-03T00:43:17.824Z,1.42
2023-02-03T00:46:30.152Z,1.49
2023-02-03T00:49:42.826Z,1.43
2023-02-03T00:52:55.509Z,1.45
2023-02-03T00:56:12.758Z,1.38
2023-02-03T00:59:25.229Z,1.36
2023-02-03T01:02:37.871Z,1.22
2023-02-03T01:05:50.207Z,1.14
2023-02-03T01:09:03.009Z,1.09
2023-02-03T01:12:15.346Z,0.99
2023-02-03T01:15:27.992Z,0.98
2023-02-03T01:18:40.803Z,1.00
2023-02-03T01:21:53.543Z,1.02
2023-02-03T01:25:08.110Z,0.97
2023-02-03T01:28:20.721Z,0.94
2023-02-03T01:31:39.694Z,0.91
2023-02-03T01:34:52.964Z,1.00
2023-02-03T01:38:05.392Z,0.85
2023-02-03T01:41:20.380Z,0.88
2023-02-03T01:44:35.803Z,0.85
2023-02-03T01:47:54.025Z,0.74
2023-02-03T01:51:06.320Z,0.62
2023-02-03T01:54:27.815Z,0.68
2023-02-03T01:57:45.354Z,0.62
2023-02-03T02:00:58.665Z,0.65
2023-02-03T02:04:11.336Z,0.70
2023-02-03T02:07:23.863Z,0.87
2023-02-03T02:10:36.524Z,0.82
2023-02-03T02:13:49.987Z,0.79
2023-02-03T02:17:31.928Z,0.80
2023-02-03T02:21:20.310Z,0.82
2023-02-03T02:24:39.026Z,0.74
2023-02-03T02:27:54.113Z,0.66
2023-02-03T02:31:46.555Z,0.60
2023-02-03T02:35:03.603Z,0.50
2023-02-03T02:38:51.849Z,0.62
2023-02-03T02:42:13.453Z,0.59
2023-02-03T02:45:48.226Z,0.64
2023-02-03T02:49:10.017Z,0.67
2023-02-03T02:52:23.368Z,0.63
2023-02-03T02:55:36.316Z,0.57
2023-02-03T02:58:49.744Z,0.43
2023-02-03T03:02:02.286Z,0.43
2023-02-03T03:05:15.788Z,0.48
2023-02-03T03:08:40.961Z,0.60
2023-02-03T03:12:00.688Z,0.50
2023-02-03T03:15:19.839Z,0.55
2023-02-03T03:18:35.123Z,0.49
2023-02-03T03:21:51.033Z,0.35
2023-02-03T03:25:25.855Z,0.39
2023-02-03T03:28:42.931Z,0.27
2023-02-03T03:31:55.711Z,0.24
2023-02-03T03:35:08.258Z,0.23
2023-02-03T03:38:23.972Z,0.19
2023-02-03T03:42:17.872Z,0.07
2023-02-03T03:45:41.023Z,0.02
2023-02-03T03:48:56.183Z,-0.05
2023-02-03T03:52:09.202Z,-0.13
2023-02-03T03:55:21.600Z,-0.13
2023-02-03T03:58:34.252Z,-0.05
2023-02-03T04:01:47.462Z,-0.09
2023-02-03T04:05:00.453Z,-0.09
2023-02-03T04:08:12.794Z,-0.08
2023-02-03T04:11:44.224Z,-0.07
2023-02-03T04:14:56.596Z,0.04
2023-02-03T04:18:10.575Z,0.15
2023-02-03T04:21:22.935Z,0.08
2023-02-03T04:24:35.568Z,0.11
2023-02-03T04:27:48.057Z,0.22
2023-02-03T04:31:01.396Z,0.19
2023-02-03T04:34:13.790Z,0.19
2023-02-03T04:37:29.496Z,0.16
2023-02-03T04:40:42.661Z,0.24
2023-02-03T04:43:55.262Z,0.09
2023-02-03T04:47:07.557Z,0.11
2023-02-03T04:50:20.243Z,-0.08
2023-02-03T04:53:32.649Z,-0.10
2023-02-03T04:56:45.269Z,-0.11
2023-02-03T04:59:57.711Z,-0.20
2023-02-03T05:03:10.413Z,-0.19
2023-02-03T05:06:24.744Z,-0.07
2023-02-03T05:09:37.360Z,-0.09
2023-02-03T05:12:49.715Z,-0.16
2023-02-03T05:16:02.336Z,-0.08
2023-02-03T05:19:14.781Z,0.07
2023-02-03T05:22:27.405Z,0.21
2023-02-03T05:25:39.725Z,0.27
2023-02-03T05:28:53.171Z,0.30
2023-02-03T05:32:06.084Z,0.34
2023-02-03T05:35:18.720Z,0.38
2023-02-03T05:38:31.056Z,0.34
2023-02-03T05:41:52.755Z,0.36
2023-02-03T05:45:05.383Z,0.38
2023-02-03T05:48:18.016Z,0.41
2023-02-03T05:51:30.477Z,0.40
2023-02-03T05:54:43.099Z,0.43
2023-02-03T05:57:55.534Z,0.36
2023-02-03T06:01:08.235Z,0.43
2023-02-03T06:04:20.987Z,0.25
2023-02-03T06:07:33.340Z,0.31
2023-02-03T06:10:46.023Z,0.40
2023-02-03T06:14:01.564Z,0.37
2023-02-03T06:17:14.180Z,0.61
2023-02-03T06:20:26.837Z,0.75
2023-02-03T06:23:39.640Z,0.65
2023-02-03T06:26:52.013Z,0.66
2023-02-03T06:30:05.015Z,0.83
2023-02-03T06:33:17.498Z,0.87
2023-02-03T06:36:30.129Z,0.82
2023-02-03T06:39:42.497Z,0.90
2023-02-03T06:42:55.169Z,0.78
2023-02-03T06:46:07.576Z,0.85
2023-02-03T06:49:20.315Z,0.77
2023-02-03T06:52:32.712Z,0.80
2023-02-03T06:55:45.440Z,0.83
2023-02-03T06:59:00.569Z,0.86
2023-02-03T07:02:13.352Z,0.83
2023-02-03T07:05:26.040Z,0.98
2023-02-03T07:08:38.677Z,0.90
2023-02-03T07:11:51.041Z,1.00
2023-02-03T07:15:04.771Z,1.18
2023-02-03T07:18:35.998Z,1.32
2023-02-03T07:21:51.795Z,1.52
2023-02-03T07:25:04.354Z,1.52
2023-02-03T07:28:17.015Z,1.59
2023-02-03T07:31:29.538Z,1.85
2023-02-03T07:34:42.359Z,1.73
2023-02-03T07:37:54.734Z,1.93
2023-02-03T07:41:07.461Z,1.96
2023-02-03T07:44:19.885Z,2.26
2023-02-03T07:47:33.011Z,2.32
2023-02-03T07:50:45.824Z,2.37
2023-02-03T07:53:58.544Z,2.36
2023-02-03T07:57:10.913Z,2.49
2023-02-03T08:00:23.815Z,2.41
2023-02-03T08:03:36.503Z,2.18
2023-02-03T08:06:50.057Z,2.03
2023-02-03T08:10:02.913Z,1.90
2023-02-03T08:13:15.361Z,1.58
2023-02-03T08:16:28.048Z,1.69
2023-02-03T08:19:40.465Z,1.81
2023-02-03T08:22:53.180Z,1.41
2023-02-03T08:26:05.558Z,1.46
2023-02-03T08:29:18.722Z,1.40
2023-02-03T08:32:33.512Z,1.45
2023-02-03T08:35:50.126Z,1.57
2023-02-03T08:39:02.523Z,1.54
2023-02-03T08:42:15.206Z,1.74
2023-02-03T08:45:27.615Z,1.63
2023-02-03T08:48:40.576Z,1.74
2023-02-03T08:51:52.940Z,1.74
2023-02-03T08:55:06.269Z,1.71
2023-02-03T08:58:18.763Z,1.93
2023-02-03T09:01:31.487Z,1.90
2023-02-03T09:04:44.311Z,1.97
2023-02-03T09:07:57.537Z,1.98
2023-02-03T09:11:14.431Z,2.05
2023-02-03T09:14:27.275Z,2.08
2023-02-03T09:17:39.667Z,2.15
2023-02-03T09:20:52.349Z,2.10
2023-02-03T09:24:04.828Z,1.95
2023-02-03T09:27:17.582Z,1.93
2023-02-03T09:30:30.809Z,1.72
2023-02-03T09:33:43.869Z,1.59
2023-02-03T09:36:56.273Z,1.29
2023-02-03T09:40:12.397Z,0.87
2023-02-03T09:43:24.631Z,0.96
2023-02-03T09:46:51.833Z,0.52
2023-02-03T09:50:27.897Z,0.35
2023-02-03T09:53:45.302Z,0.65
2023-02-03T09:57:00.292Z,0.50
2023-02-03T10:00:41.126Z,0.84
2023-02-03T10:04:18.866Z,0.81
2023-02-03T10:08:01.706Z,1.01
2023-02-03T10:12:01.778Z,1.04
2023-02-03T10:15:27.238Z,0.98
2023-02-03T10:18:46.827Z,1.56
2023-02-03T10:21:59.393Z,1.63
2023-02-03T10:25:14.816Z,1.55
2023-02-03T10:28:30.088Z,1.63
2023-02-03T10:31:45.114Z,1.70
2023-02-03T10:34:57.590Z,2.13
2023-02-03T10:38:10.912Z,1.88
2023-02-03T10:41:23.358Z,1.57
2023-02-03T10:44:51.434Z,1.34
2023-02-03T10:48:04.591Z,1.48
2023-02-03T10:51:20.619Z,1.70
2023-02-03T10:54:34.518Z,1.62
2023-02-03T10:57:47.152Z,1.62
2023-02-03T11:01:10.964Z,1.61
2023-02-03T11:04:26.836Z,1.73
2023-02-03T11:07:39.176Z,1.66
2023-02-03T11:10:51.903Z,1.48
2023-02-03T11:14:04.107Z,1.22
2023-02-03T11:17:17.709Z,1.39
2023-02-03T11:20:30.676Z,1.15
2023-02-03T11:23:47.781Z,1.42
2023-02-03T11:27:17.198Z,1.58
2023-02-03T11:30:30.432Z,1.44
2023-02-03T11:33:42.970Z,1.43
2023-02-03T11:36:55.650Z,1.18
2023-02-03T11:40:07.929Z,1.38
2023-02-03T11:43:22.922Z,1.43
2023-02-03T11:46:37.834Z,1.47
2023-02-03T11:50:10.334Z,1.40
2023-02-03T11:53:25.108Z,1.57
2023-02-03T11:56:49.287Z,1.41
2023-02-03T12:00:20.173Z,1.01
2023-02-03T12:03:35.746Z,1.02
2023-02-03T12:07:06.147Z,0.88
2023-02-03T12:10:25.510Z,1.01
2023-02-03T12:13:56.169Z,1.15
2023-02-03T12:17:56.864Z,1.06
2023-02-03T12:21:31.636Z,1.03
2023-02-03T12:24:59.662Z,1.10
2023-02-03T12:28:38.067Z,1.07
2023-02-03T12:32:02.580Z,1.18
2023-02-03T12:35:21.764Z,1.05
2023-02-03T12:38:56.067Z,1.02
2023-02-03T12:42:40.055Z,1.26
2023-02-03T12:46:03.408Z,1.06
2023-02-03T12:49:28.899Z,1.02
2023-02-03T12:53:15.682Z,1.15
2023-02-03T12:56:31.892Z,1.15
2023-02-03T12:59:45.419Z,1.12
2023-02-03T13:03:16.517Z,1.17
2023-02-03T13:06:54.063Z,1.29
2023-02-03T13:10:16.134Z,1.46
2023-02-03T13:13:34.249Z,1.42
2023-02-03T13:16:53.166Z,1.35
2023-02-03T13:20:14.193Z,1.48
2023-02-03T13:23:26.637Z,1.20
2023-02-03T13:27:03.926Z,1.41
2023-02-03T13:30:40.982Z,1.11
2023-02-03T13:34:21.571Z,1.45
2023-02-03T13:37:46.348Z,1.38
2023-02-03T13:41:03.266Z,1.44
2023-02-03T13:44:17.951Z,1.19
2023-02-03T13:47:31.180Z,1.22
2023-02-03T13:50:43.637Z,1.42
2023-02-03T13:54:00.949Z,1.31
2023-02-03T13:57:28.327Z,1.50
2023-02-03T14:00:43.873Z,1.22
2023-02-03T14:03:57.217Z,1.08
2023-02-03T14:07:34.510Z,1.29
2023-02-03T14:10:47.149Z,1.18
2023-02-03T14:14:08.413Z,1.04
2023-02-03T14:17:36.209Z,1.25
2023-02-03T14:20:51.214Z,1.23
2023-02-03T14:24:09.354Z,1.17
2023-02-03T14:27:23.791Z,1.41
2023-02-03T14:31:11.953Z,1.36
2023-02-03T14:34:39.993Z,1.25
2023-02-03T14:37:53.330Z,1.24
2023-02-03T14:41:05.657Z,1.40
2023-02-03T14:44:30.607Z,1.50
2023-02-03T14:48:10.759Z,1.47
2023-02-03T14:51:45.070Z,1.75
2023-02-03T14:55:18.396Z,1.49
2023-02-03T14:58:48.437Z,1.84
2023-02-03T15:02:03.674Z,1.71
2023-02-03T15:05:19.444Z,1.79
2023-02-03T15:08:42.835Z,1.83
2023-02-03T15:11:55.450Z,1.77
2023-02-03T15:15:15.332Z,1.86
2023-02-03T15:18:33.268Z,2.12
2023-02-03T15:21:45.646Z,2.25
2023-02-03T15:25:04.334Z,2.16
2023-02-03T15:28:20.613Z,2.18
2023-02-03T15:31:55.210Z,2.31
2023-02-03T15:35:08.406Z,2.22
2023-02-03T15:38:29.625Z,2.30
2023-02-03T15:41:41.978Z,2.64
2023-02-03T15:44:58.442Z,2.61
2023-02-03T15:48:36.942Z,2.58
2023-02-03T15:52:11.554Z,2.68
2023-02-03T15:55:37.664Z,2.83
2023-02-03T15:58:50.627Z,2.86
2023-02-03T16:02:13.124Z,2.96
2023-02-03T16:05:26.819Z,3.05
2023-02-03T16:08:43.230Z,3.01
2023-02-03T16:12:16.188Z,2.95
2023-02-03T16:15:28.847Z,2.86
2023-02-03T16:18:41.623Z,2.98
2023-02-03T16:21:55.672Z,2.87
2023-02-03T16:25:21.755Z,2.95
2023-02-03T16:28:52.816Z,2.97
2023-02-03T16:32:37.112Z,3.07
2023-02-03T16:36:08.282Z,3.05
2023-02-03T16:39:39.867Z,3.01
2023-02-03T16:43:10.820Z,3.04
2023-02-03T16:46:41.911Z,3.10
2023-02-03T16:50:12.920Z,3.04
2023-02-03T16:53:30.329Z,3.10
2023-02-03T16:56:42.681Z,3.11
2023-02-03T16:59:55.224Z,3.19
2023-02-03T17:03:08.088Z,3.13
2023-02-03T17:06:20.757Z,3.22
2023-02-03T17:09:35.913Z,3.12
2023-02-03T17:12:48.532Z,3.12
2023-02-03T17:16:01.056Z,3.17
2023-02-03T17:19:13.690Z,3.11
2023-02-03T17:22:27.123Z,3.14
2023-02-03T17:25:39.883Z,3.09
2023-02-03T17:28:52.217Z,3.18
2023-02-03T17:32:05.193Z,3.18
2023-02-03T17:35:17.695Z,3.22
2023-02-03T17:38:31.074Z,3.18
2023-02-03T17:55:43.076Z,3.33
2023-02-03T17:58:56.553Z,3.36
2023-02-03T18:02:09.711Z,3.33
2023-02-03T18:05:22.368Z,3.39
2023-02-03T18:08:35.364Z,3.36
2023-02-03T18:11:47.932Z,3.36
2023-02-03T18:15:00.288Z,3.40
2023-02-03T18:18:13.274Z,3.36
2023-02-03T18:21:25.956Z,3.41
2023-02-03T18:24:39.820Z,3.35
2023-02-03T18:27:52.348Z,3.45
2023-02-03T18:31:06.908Z,3.47
2023-02-03T18:34:19.372Z,3.43
2023-02-03T18:37:32.131Z,3.44
2023-02-03T18:40:44.443Z,3.64
2023-02-03T18:43:57.089Z,3.56
2023-02-03T18:47:09.433Z,3.51
2023-02-03T18:50:22.053Z,3.61
2023-02-03T18:53:34.374Z,3.61
2023-02-03T18:56:46.949Z,3.62
2023-02-03T18:59:59.292Z,3.58
2023-02-03T19:03:11.930Z,3.68
2023-02-03T19:06:24.317Z,3.59
2023-02-03T19:09:37.149Z,3.64
2023-02-03T19:12:49.658Z,3.62
2023-02-03T19:16:02.622Z,3.59
2023-02-03T19:19:15.141Z,3.58
2023-02-03T19:22:27.716Z,3.68
2023-02-03T19:25:40.387Z,3.74
2023-02-03T19:28:53.105Z,3.65
2023-02-03T19:32:06.885Z,3.60
2023-02-03T19:35:19.804Z,3.61
2023-02-03T19:38:32.122Z,3.55
2023-02-03T19:41:44.790Z,3.65
2023-02-03T19:44:57.138Z,3.53
2023-02-03T19:48:09.793Z,3.56
2023-02-03T19:51:22.249Z,3.60
2023-02-03T19:54:34.882Z,3.73
2023-02-03T19:57:47.282Z,3.68
2023-02-03T20:00:59.925Z,3.67
2023-02-03T20:04:12.536Z,3.75
2023-02-03T20:07:25.440Z,3.86
2023-02-03T20:10:38.397Z,4.07
2023-02-03T20:13:50.844Z,4.01
2023-02-03T20:17:06.086Z,3.97
2023-02-03T20:20:27.106Z,3.93
2023-02-03T20:23:39.739Z,3.96
2023-02-03T20:26:52.341Z,4.18
2023-02-03T20:30:05.313Z,4.23
2023-02-03T20:33:17.621Z,4.31
2023-02-03T20:36:30.546Z,4.34
2023-02-03T20:39:42.897Z,4.22
2023-02-03T20:42:55.683Z,4.19
2023-02-03T20:46:12.743Z,4.12
2023-02-03T20:49:25.975Z,4.09
2023-02-03T20:52:38.193Z,4.07
2023-02-03T20:55:56.884Z,4.06
2023-02-03T20:59:11.125Z,4.01
2023-02-03T21:02:31.261Z,4.14
2023-02-03T21:05:44.577Z,4.14
2023-02-03T21:09:19.705Z,4.05
2023-02-03T21:12:32.079Z,3.97
2023-02-03T21:15:44.683Z,3.92
2023-02-03T21:19:02.748Z,4.01
2023-02-03T21:22:17.473Z,3.95
2023-02-03T21:25:31.736Z,3.88
2023-02-03T21:28:44.388Z,3.86
2023-02-03T21:31:56.830Z,3.98
2023-02-03T21:35:30.957Z,3.94
2023-02-03T21:38:43.298Z,3.95
2023-02-03T21:41:56.840Z,3.97
2023-02-03T21:45:15.020Z,3.96
2023-02-03T21:48:32.501Z,3.99
2023-02-03T21:51:44.841Z,4.12
2023-02-03T21:54:57.432Z,4.07
2023-02-03T21:58:23.702Z,4.01
2023-02-03T22:01:36.880Z,3.91
2023-02-03T22:04:49.578Z,3.97
2023-02-03T22:08:23.164Z,3.93
2023-02-03T22:11:35.863Z,3.89
2023-02-03T22:14:48.172Z,3.87
2023-02-03T22:18:00.771Z,3.84
2023-02-03T22:21:13.220Z,3.89
2023-02-03T22:24:25.828Z,3.80
2023-02-03T22:27:38.231Z,3.76
2023-02-03T22:30:50.916Z,3.72
2023-02-03T22:34:03.367Z,3.70
2023-02-03T22:37:15.990Z,3.69
2023-02-03T22:40:28.897Z,3.70
2023-02-03T22:43:41.855Z,3.72
2023-02-03T22:46:54.232Z,3.64
2023-02-03T22:50:07.474Z,3.74
2023-02-03T22:53:19.812Z,3.74
2023-02-03T22:56:32.388Z,3.70
2023-02-03T22:59:44.729Z,3.67
2023-02-03T23:02:57.367Z,3.67
2023-02-03T23:06:09.700Z,3.69
2023-02-03T23:09:22.347Z,3.67
2023-02-03T23:12:34.674Z,3.80
2023-02-03T23:15:47.268Z,3.71
2023-02-03T23:18:59.697Z,3.81
2023-02-03T23:22:12.295Z,3.88
2023-02-03T23:25:24.672Z,3.89
2023-02-03T23:28:37.279Z,3.83
2023-02-03T23:31:49.727Z,3.72
2023-02-03T23:35:21.038Z,3.80
2023-02-03T23:38:33.680Z,3.84
2023-02-03T23:41:46.285Z,3.90
2023-02-03T23:44:59.263Z,3.93
2023-02-03T23:48:12.612Z,3.96
2023-02-03T23:51:24.960Z,3.89
2023-02-03T23:54:37.573Z,3.86
2023-02-03T23:57:50.225Z,3.83
